Time;durP1;ratioP1;P1;durP2;ratioP2;P2;SDS_P1;SDS_P2;PMS_P1;PMS_P2;Temp;Humidity;BMP_temperature;BMP_pressure;BME280_temperature;BME280_humidity;BME280_pressure;Samples;Min_cycle;Max_cycle;Signal;HPM_P1;HPM_P2
2022/01/04 00:00:10;;;;;;;7.38;3.20;;;;;;;7.82;81.67;100157.06;5050700;28;20433;-87
2022/01/04 00:02:35;;;;;;;6.68;3.22;;;;;;;7.83;81.69;100148.41;5049937;28;20108;-87
2022/01/04 00:05:00;;;;;;;5.95;3.15;;;;;;;7.82;81.32;100161.41;5049876;28;20186;-87
2022/01/04 00:07:26;;;;;;;6.97;3.63;;;;;;;7.83;81.53;100137.22;5050789;28;20480;-87
2022/01/04 00:09:52;;;;;;;7.40;3.50;;;;;;;7.79;81.57;100138.16;5050553;28;20031;-88
2022/01/04 00:15:04;;;;;;;7.95;3.30;;;;;;;7.79;81.97;100136.41;5050677;28;20122;-87
2022/01/04 00:17:29;;;;;;;6.97;3.25;;;;;;;7.78;81.90;100123.53;5054436;28;20036;-88
2022/01/04 00:19:54;;;;;;;7.22;3.10;;;;;;;7.79;81.57;100123.47;5050958;28;20404;-87
2022/01/04 00:22:20;;;;;;;12.18;3.45;;;;;;;7.80;81.86;100113.97;5036550;28;20124;-87
2022/01/04 00:24:46;;;;;;;5.80;3.50;;;;;;;7.79;81.67;100115.69;5049738;28;20028;-87
2022/01/04 00:27:11;;;;;;;6.00;3.45;;;;;;;7.79;81.77;100115.69;5050508;28;20043;-87
2022/01/04 00:29:37;;;;;;;7.85;3.40;;;;;;;7.79;81.67;100109.69;5050477;28;20519;-87
2022/01/04 00:32:03;;;;;;;7.15;2.97;;;;;;;7.78;81.87;100098.47;5050596;28;20033;-87
2022/01/04 00:34:28;;;;;;;7.72;3.42;;;;;;;7.80;81.71;100091.50;5050038;28;20082;-87
2022/01/04 00:36:54;;;;;;;8.27;3.28;;;;;;;7.78;81.89;100082.09;5050403;28;20025;-87
2022/01/04 00:39:19;;;;;;;8.65;3.30;;;;;;;7.77;81.89;100080.41;5050185;28;20056;-87
2022/01/04 00:41:44;;;;;;;7.43;2.90;;;;;;;7.75;82.03;100070.94;5050735;28;20438;-87
2022/01/04 00:44:10;;;;;;;7.78;3.22;;;;;;;7.75;81.82;100062.31;5057320;28;20036;-87
2022/01/04 00:46:35;;;;;;;5.35;2.70;;;;;;;7.74;82.22;100056.28;5050490;28;20067;-87
2022/01/04 00:49:10;;;;;;;6.05;2.90;;;;;;;7.72;81.79;100057.22;5050422;28;20032;-87
2022/01/04 00:51:43;;;;;;;6.25;3.13;;;;;;;7.67;81.97;100049.59;5050436;28;20047;-87
2022/01/04 00:54:09;;;;;;;7.50;2.97;;;;;;;7.68;82.03;100058.19;5049992;28;20032;-87
2022/01/04 00:56:34;;;;;;;6.47;3.20;;;;;;;7.67;82.01;100054.75;5050613;28;20021;-88
2022/01/04 00:59:00;;;;;;;6.57;3.00;;;;;;;7.68;81.70;100061.63;5050300;28;20037;-87
2022/01/04 01:01:25;;;;;;;7.57;3.55;;;;;;;7.66;81.94;100053.06;5047244;28;20024;-87
2022/01/04 01:03:51;;;;;;;8.45;3.13;;;;;;;7.67;82.04;100049.59;5048729;28;20117;-87
2022/01/04 01:06:17;;;;;;;7.25;3.20;;;;;;;7.67;82.12;100043.53;5050427;28;20025;-87
2022/01/04 01:08:42;;;;;;;6.13;3.10;;;;;;;7.65;82.08;100035.81;5061132;28;20033;-87
2022/01/04 01:11:08;;;;;;;6.07;3.10;;;;;;;7.64;82.21;100031.53;5053709;28;20029;-87
2022/01/04 01:13:34;;;;;;;7.60;3.30;;;;;;;7.62;82.39;100030.72;5054776;28;20040;-87
2022/01/04 01:15:59;;;;;;;6.75;2.95;;;;;;;7.62;82.92;100032.44;5052439;28;20033;-87
2022/01/04 01:18:24;;;;;;;8.68;3.60;;;;;;;7.62;82.58;100035.91;5053735;28;20029;-87
2022/01/04 01:20:50;;;;;;;7.57;3.40;;;;;;;7.61;82.48;100034.19;5053429;28;20028;-87
2022/01/04 01:23:17;;;;;;;9.13;3.42;;;;;;;7.58;82.32;100029.09;5052585;28;20542;-88
2022/01/04 01:25:42;;;;;;;6.97;3.63;;;;;;;7.54;82.59;100022.28;5037439;28;20052;-87
2022/01/04 01:28:08;;;;;;;7.72;3.55;;;;;;;7.53;82.79;100021.47;5054914;28;20506;-87
2022/01/04 01:30:36;;;;;;;8.60;3.72;;;;;;;7.53;82.82;100015.41;5054086;28;20025;-87
2022/01/04 01:33:02;;;;;;;8.40;4.07;;;;;;;7.53;82.61;100020.59;5037642;28;20064;-87
2022/01/04 01:35:27;;;;;;;9.27;3.97;;;;;;;7.53;82.89;100015.41;5053030;28;20067;-86
2022/01/04 01:37:52;;;;;;;8.35;3.75;;;;;;;7.54;82.76;100011.94;5052460;28;20055;-87
2022/01/04 01:40:18;;;;;;;9.05;4.05;;;;;;;7.53;82.60;100005.94;5053349;28;20028;-87
2022/01/04 01:42:43;;;;;;;8.02;4.10;;;;;;;7.53;82.72;100007.66;5054147;28;20487;-87
2022/01/04 01:45:11;;;;;;;6.90;3.55;;;;;;;7.51;82.67;99999.13;5052725;28;20507;-87
2022/01/04 01:47:41;;;;;;;8.38;3.90;;;;;;;7.50;83.09;99989.66;5052942;28;20062;-87
2022/01/04 01:50:07;;;;;;;9.20;4.50;;;;;;;7.49;82.63;99987.94;5053489;28;20029;-87
2022/01/04 01:52:32;;;;;;;8.85;4.20;;;;;;;7.47;82.89;99984.53;5053148;28;20078;-87
2022/01/04 01:54:57;;;;;;;8.15;4.05;;;;;;;7.47;83.00;99976.78;5053102;28;20028;-87
2022/01/04 01:57:24;;;;;;;9.43;3.90;;;;;;;7.48;82.91;99975.91;5052613;28;20029;-87
2022/01/04 01:59:49;;;;;;;8.85;3.97;;;;;;;7.44;82.95;99975.97;5052533;28;20389;-87
2022/01/04 02:02:15;;;;;;;10.48;4.75;;;;;;;7.44;82.92;99981.16;5052848;28;20082;-87
2022/01/04 02:04:40;;;;;;;8.35;4.35;;;;;;;7.48;82.88;99989.66;5052838;28;20438;-87
2022/01/04 02:07:07;;;;;;;8.32;4.07;;;;;;;7.47;82.85;99974.19;5052108;28;20025;-87
2022/01/04 02:09:34;;;;;;;8.75;4.55;;;;;;;7.47;83.05;99969.84;5052010;28;20508;-87
2022/01/04 02:12:00;;;;;;;9.68;4.78;;;;;;;7.46;82.72;99968.16;5052506;28;20063;-87
2022/01/04 02:14:26;;;;;;;9.40;4.45;;;;;;;7.43;82.94;99966.50;5052680;28;20071;-87
2022/01/04 02:16:51;;;;;;;9.18;4.60;;;;;;;7.45;82.81;99950.94;5052458;28;20111;-87
2022/01/04 02:19:17;;;;;;;10.10;4.80;;;;;;;7.41;83.07;99950.16;5052782;28;20082;-87
2022/01/04 02:21:42;;;;;;;9.82;4.90;;;;;;;7.39;82.92;99946.78;5051474;28;20028;-87
2022/01/04 02:24:07;;;;;;;7.38;4.85;;;;;;;7.38;82.60;99937.31;5052992;28;20033;-87
2022/01/04 02:26:33;;;;;;;11.70;5.20;;;;;;;7.39;82.88;99941.59;5061277;28;20480;-88
2022/01/04 02:28:59;;;;;;;8.60;4.90;;;;;;;7.39;83.13;99941.59;5052605;28;20628;-87
2022/01/04 02:31:27;;;;;;;9.57;4.95;;;;;;;7.36;83.12;99941.69;5051921;28;20031;-87
2022/01/04 02:33:52;;;;;;;11.38;5.13;;;;;;;7.36;83.29;99939.09;5052519;28;20029;-87
2022/01/04 02:36:18;;;;;;;10.02;4.95;;;;;;;7.37;83.05;99933.03;5035093;28;20021;-87
2022/01/04 02:38:43;;;;;;;10.60;5.20;;;;;;;7.37;82.98;99937.38;5051202;28;20393;-87
2022/01/04 02:41:08;;;;;;;10.02;5.60;;;;;;;7.36;83.10;99936.50;5051880;28;20131;-87
2022/01/04 02:43:33;;;;;;;13.52;5.07;;;;;;;7.38;82.76;99939.06;5035742;28;20384;-87
2022/01/04 02:45:59;;;;;;;8.95;5.28;;;;;;;7.36;82.82;99928.75;5051400;28;20033;-88
2022/01/04 02:48:24;;;;;;;9.75;4.90;;;;;;;7.36;82.96;99928.75;5051312;28;20017;-87
2022/01/04 02:50:50;;;;;;;8.98;5.05;;;;;;;7.35;82.80;99918.44;5051954;28;20414;-87
2022/01/04 02:53:16;;;;;;;11.45;5.00;;;;;;;7.35;82.74;99913.25;5051868;28;20103;-87
2022/01/04 02:55:42;;;;;;;8.95;4.88;;;;;;;7.32;83.06;99909.03;5051634;28;20091;-86
2022/01/04 02:58:07;;;;;;;8.85;5.10;;;;;;;7.32;83.64;99903.00;5051336;28;20523;-87
2022/01/04 03:00:32;;;;;;;15.15;5.72;;;;;;;7.31;82.68;99907.34;5051512;28;20048;-87
2022/01/04 03:02:58;;;;;;;10.10;5.05;;;;;;;7.31;82.90;99901.28;5051554;28;20104;-87
2022/01/04 03:05:23;;;;;;;10.27;5.57;;;;;;;7.31;82.84;99902.16;5053616;28;20503;-87
2022/01/04 03:07:48;;;;;;;10.13;5.18;;;;;;;7.30;82.86;99900.47;5034434;28;20040;-87
2022/01/04 03:10:14;;;;;;;10.05;5.20;;;;;;;7.30;82.59;99884.94;5050586;28;20027;-88
2022/01/04 03:12:42;;;;;;;9.27;5.40;;;;;;;7.28;82.63;99887.56;5050769;28;20399;-87
2022/01/04 03:15:08;;;;;;;9.50;5.53;;;;;;;7.27;82.63;99887.59;5051877;28;20021;-87
2022/01/04 03:17:34;;;;;;;9.77;5.30;;;;;;;7.27;82.73;99885.03;5051785;28;20391;-87
2022/01/04 03:19:59;;;;;;;11.05;5.38;;;;;;;7.27;82.63;99879.84;5051322;28;20598;-87
2022/01/04 03:22:24;;;;;;;7.88;5.00;;;;;;;7.26;82.48;99872.97;5051490;28;20037;-87
2022/01/04 03:24:50;;;;;;;10.55;5.57;;;;;;;7.27;82.34;99867.75;5050887;28;20392;-87
2022/01/04 03:27:15;;;;;;;10.32;5.32;;;;;;;7.26;82.41;99857.44;5050887;28;20653;-87
2022/01/04 03:29:40;;;;;;;9.60;5.60;;;;;;;7.26;82.36;99852.28;5049938;28;20490;-88
2022/01/04 03:32:06;;;;;;;9.93;5.32;;;;;;;7.24;82.65;99844.56;5051104;28;20029;-87
2022/01/04 03:34:31;;;;;;;9.07;4.82;;;;;;;7.24;82.77;99838.53;5051158;28;20021;-87
2022/01/04 03:36:57;;;;;;;9.52;4.95;;;;;;;7.25;82.59;99835.06;5051581;28;20439;-87
2022/01/04 03:39:22;;;;;;;11.57;4.63;;;;;;;7.24;82.36;99823.88;5051376;28;20037;-87
2022/01/04 03:41:47;;;;;;;7.35;4.38;;;;;;;7.22;82.61;99810.13;5053913;28;21751;-87
2022/01/04 03:44:18;;;;;;;7.13;4.38;;;;;;;7.23;82.57;99816.13;5051226;28;20032;-87
2022/01/04 03:46:44;;;;;;;8.88;4.65;;;;;;;7.20;82.74;99801.56;5051408;28;20031;-87
2022/01/04 03:49:09;;;;;;;10.63;4.53;;;;;;;7.21;82.50;99799.81;5051079;28;20028;-87
2022/01/04 03:51:34;;;;;;;7.80;4.35;;;;;;;7.20;82.68;99792.94;5034833;28;20477;-87
2022/01/04 03:54:00;;;;;;;9.88;4.60;;;;;;;7.19;82.35;99784.34;5050553;28;20020;-87
2022/01/04 03:56:25;;;;;;;9.30;4.32;;;;;;;7.19;82.61;99783.47;5051202;28;20071;-87
2022/01/04 03:58:50;;;;;;;6.68;4.05;;;;;;;7.17;82.67;99780.94;5050735;28;20044;-86
2022/01/04 04:01:16;;;;;;;9.60;4.35;;;;;;;7.18;82.48;99774.03;5050925;28;20029;-87
2022/01/04 04:03:41;;;;;;;9.10;4.53;;;;;;;7.17;82.39;99767.19;5050331;28;20060;-87
2022/01/04 04:06:06;;;;;;;9.25;4.55;;;;;;;7.16;82.51;99762.91;5050746;28;20017;-87
2022/01/04 04:08:32;;;;;;;8.45;4.20;;;;;;;7.17;82.63;99759.44;5051001;28;20075;-87
2022/01/04 04:10:57;;;;;;;11.68;4.47;;;;;;;7.19;82.37;99753.31;5050630;28;20389;-87
2022/01/04 04:13:23;;;;;;;9.95;4.50;;;;;;;7.19;82.45;99752.44;5050415;28;20133;-87
2022/01/04 04:15:48;;;;;;;10.55;4.65;;;;;;;7.20;82.57;99747.25;5050424;28;20705;-87
2022/01/04 04:18:14;;;;;;;9.50;4.70;;;;;;;7.19;82.48;99753.31;5050969;28;20025;-87
2022/01/04 04:20:40;;;;;;;9.27;4.50;;;;;;;7.18;82.40;99742.97;5050740;28;20040;-87
2022/01/04 04:23:06;;;;;;;9.20;5.00;;;;;;;7.18;82.45;99738.69;5050365;28;20061;-86
2022/01/04 04:25:33;;;;;;;10.20;5.13;;;;;;;7.17;82.62;99736.16;5051479;28;20128;-87
2022/01/04 04:27:59;;;;;;;11.20;5.10;;;;;;;7.18;82.56;99730.06;5051529;28;20025;-87
2022/01/04 04:30:24;;;;;;;11.82;5.20;;;;;;;7.18;82.37;99730.91;5050152;28;20041;-87
2022/01/04 04:32:49;;;;;;;7.93;4.88;;;;;;;7.18;82.34;99719.72;5050096;28;20369;-87
2022/01/04 04:35:15;;;;;;;8.40;4.60;;;;;;;7.17;82.46;99721.47;5050806;28;20074;-87
2022/01/04 04:37:40;;;;;;;10.98;5.03;;;;;;;7.16;82.32;99729.28;5051159;28;20056;-87
2022/01/04 04:40:07;;;;;;;10.23;5.10;;;;;;;7.14;82.63;99730.16;5050602;28;20033;-87
2022/01/04 04:42:33;;;;;;;9.52;5.38;;;;;;;7.14;82.51;99730.16;5053892;28;20025;-87
2022/01/04 04:44:58;;;;;;;10.60;5.15;;;;;;;7.13;82.73;99720.72;5054913;28;20747;-87
2022/01/04 04:47:23;;;;;;;10.35;5.38;;;;;;;7.12;82.99;99726.78;5054370;28;20047;-87
2022/01/04 04:49:49;;;;;;;10.23;5.85;;;;;;;7.12;82.75;99724.19;5054643;28;20036;-87
2022/01/04 04:52:14;;;;;;;14.02;5.72;;;;;;;7.12;83.12;99721.59;5053986;28;20040;-87
2022/01/04 04:54:40;;;;;;;10.25;5.55;;;;;;;7.14;82.93;99725.00;5054348;28;20108;-87
2022/01/04 04:57:06;;;;;;;10.55;5.78;;;;;;;7.14;82.85;99727.59;5053896;28;20484;-87
2022/01/04 04:59:31;;;;;;;10.93;5.38;;;;;;;7.15;82.73;99728.41;5054403;28;20035;-87
2022/01/04 05:01:56;;;;;;;9.32;5.40;;;;;;;7.16;82.64;99729.28;5058380;28;20112;-87
2022/01/04 05:04:22;;;;;;;10.98;5.63;;;;;;;7.15;83.06;99723.25;5056341;28;20498;-87
2022/01/04 05:06:48;;;;;;;10.23;5.38;;;;;;;7.16;82.70;99727.53;5057095;28;20562;-87
2022/01/04 05:09:13;;;;;;;9.52;5.20;;;;;;;7.15;82.81;99720.66;5054167;28;20070;-87
2022/01/04 05:11:39;;;;;;;8.32;4.57;;;;;;;7.12;82.39;99713.84;5053565;28;20048;-87
2022/01/04 05:14:04;;;;;;;9.07;5.03;;;;;;;7.13;82.94;99712.94;5053850;28;20112;-87
2022/01/04 05:16:29;;;;;;;10.45;5.10;;;;;;;7.13;82.70;99717.25;5054072;28;20507;-87
2022/01/04 05:18:55;;;;;;;10.27;5.57;;;;;;;7.14;82.74;99711.19;5054560;28;20082;-87
2022/01/04 05:21:20;;;;;;;9.98;5.22;;;;;;;7.12;82.64;99706.09;5053977;28;20025;-86
2022/01/04 05:23:45;;;;;;;11.73;5.93;;;;;;;7.12;82.79;99700.06;5056792;28;20037;-87
2022/01/04 05:26:11;;;;;;;9.20;5.43;;;;;;;7.11;82.77;99704.38;5052305;28;20045;-87
2022/01/04 05:28:38;;;;;;;9.20;5.80;;;;;;;7.11;82.84;99704.38;5054294;28;20029;-88
2022/01/04 05:31:04;;;;;;;7.90;5.35;;;;;;;7.10;83.19;99691.47;5053083;28;20540;-87
2022/01/04 05:33:29;;;;;;;9.23;5.65;;;;;;;7.09;82.84;99693.25;5054063;28;20115;-87
2022/01/04 05:35:54;;;;;;;9.57;5.95;;;;;;;7.07;83.12;99697.59;5053685;28;20033;-87
2022/01/04 05:38:19;;;;;;;10.60;6.15;;;;;;;7.08;82.89;99686.38;5053659;28;20404;-87
2022/01/04 05:40:45;;;;;;;12.93;6.50;;;;;;;7.06;83.08;99685.56;5053685;28;20033;-87
2022/01/04 05:43:10;;;;;;;10.23;6.40;;;;;;;7.05;83.12;99670.94;5053285;28;20111;-87
2022/01/04 05:45:36;;;;;;;10.80;6.78;;;;;;;7.06;82.98;99664.88;5053662;28;20024;-87
2022/01/04 05:48:01;;;;;;;10.95;7.10;;;;;;;7.05;83.06;99658.00;5053623;28;20024;-87
2022/01/04 05:50:26;;;;;;;10.77;6.82;;;;;;;7.06;83.13;99664.03;5053173;28;20033;-87
2022/01/04 05:52:52;;;;;;;11.43;7.22;;;;;;;7.05;83.79;99652.84;5052010;28;20036;-87
2022/01/04 05:55:17;;;;;;;10.85;7.22;;;;;;;7.02;84.08;99645.16;5053035;28;20025;-87
2022/01/04 05:57:42;;;;;;;12.02;7.60;;;;;;;6.99;84.78;99640.94;5052957;28;20033;-87
2022/01/04 06:00:08;;;;;;;11.32;6.80;;;;;;;6.97;84.48;99639.31;5055173;28;20032;-87
2022/01/04 06:02:34;;;;;;;11.18;7.78;;;;;;;6.96;84.39;99647.97;5052359;28;20036;-88
2022/01/04 06:04:59;;;;;;;11.73;8.10;;;;;;;6.95;84.53;99654.84;5053303;28;20041;-87
2022/01/04 06:07:25;;;;;;;10.10;7.18;;;;;;;6.95;84.67;99665.19;5053011;28;20043;-87
2022/01/04 06:09:53;;;;;;;13.85;7.18;;;;;;;6.94;84.99;99662.66;5052479;28;20032;-88
2022/01/04 06:15:09;;;;;;;9.15;6.95;;;;;;;6.92;84.88;99647.19;5009599;28;20037;-87
2022/01/04 06:17:41;;;;;;;10.52;7.60;;;;;;;6.92;85.28;99636.84;5051808;28;20510;-87
2022/01/04 06:20:08;;;;;;;11.23;7.85;;;;;;;6.92;85.09;99642.00;5035409;28;20037;-87
2022/01/04 06:22:34;;;;;;;22.88;8.30;;;;;;;6.93;85.22;99648.03;5052327;28;20384;-86
2022/01/04 06:25:00;;;;;;;11.30;7.88;;;;;;;6.92;85.20;99646.34;5053060;28;20060;-87
2022/01/04 06:27:25;;;;;;;12.10;7.78;;;;;;;6.91;85.26;99637.75;5052954;28;20028;-87
2022/01/04 06:29:51;;;;;;;12.13;8.60;;;;;;;6.92;85.46;99633.44;5052783;28;20415;-87
2022/01/04 06:32:17;;;;;;;14.55;7.47;;;;;;;6.92;85.19;99628.25;5050820;28;20128;-87
2022/01/04 06:34:43;;;;;;;10.23;7.78;;;;;;;6.91;85.48;99631.72;5052494;28;20087;-87
2022/01/04 06:37:10;;;;;;;10.68;8.40;;;;;;;6.90;85.62;99642.97;5052790;28;20353;-87
2022/01/04 06:39:36;;;;;;;20.40;8.38;;;;;;;6.91;85.48;99648.09;5051857;28;20034;-87
2022/01/04 06:42:02;;;;;;;12.73;8.70;;;;;;;6.90;85.52;99643.81;5052463;28;20095;-87
2022/01/04 06:44:27;;;;;;;12.55;8.35;;;;;;;6.92;85.74;99638.59;5052303;28;20086;-87
2022/01/04 06:46:53;;;;;;;24.23;9.02;;;;;;;6.92;85.83;99636.84;5051623;28;20104;-87
2022/01/04 06:49:19;;;;;;;13.27;8.68;;;;;;;6.93;85.53;99641.13;5052253;28;20082;-87
2022/01/04 06:51:45;;;;;;;14.30;8.98;;;;;;;6.91;85.58;99627.41;5051325;28;20106;-87
2022/01/04 06:54:13;;;;;;;12.50;9.23;;;;;;;6.91;85.57;99614.50;5051992;28;20032;-87
2022/01/04 06:56:39;;;;;;;14.07;9.27;;;;;;;6.91;85.76;99613.63;5052775;28;20033;-87
2022/01/04 06:59:05;;;;;;;11.57;9.48;;;;;;;6.90;85.93;99617.09;5051886;28;20033;-87
2022/01/04 07:01:32;;;;;;;13.57;9.90;;;;;;;6.91;85.71;99616.22;5050887;28;20025;-86
2022/01/04 07:03:57;;;;;;;12.85;9.85;;;;;;;6.90;86.13;99611.94;5050516;28;20041;-87
2022/01/04 07:06:23;;;;;;;14.27;10.35;;;;;;;6.89;85.79;99599.91;5051702;28;20499;-87
2022/01/04 07:08:48;;;;;;;13.35;9.85;;;;;;;6.88;85.98;99608.53;5052322;28;20039;-87
2022/01/04 07:11:14;;;;;;;13.95;9.73;;;;;;;6.87;86.06;99606.84;5050630;28;20467;-87
2022/01/04 07:13:40;;;;;;;13.23;10.30;;;;;;;6.86;86.35;99600.84;5052110;28;20032;-87
2022/01/04 07:16:05;;;;;;;13.02;10.48;;;;;;;6.84;86.18;99593.13;5051361;28;20033;-86
2022/01/04 07:18:31;;;;;;;13.55;10.35;;;;;;;6.85;86.35;99588.81;5034368;28;20028;-87
2022/01/04 07:20:56;;;;;;;14.57;10.70;;;;;;;6.83;86.35;99596.59;5052439;28;20040;-86
2022/01/04 07:23:22;;;;;;;13.90;10.68;;;;;;;6.83;86.42;99591.44;5052689;28;20071;-87
2022/01/04 07:25:48;;;;;;;15.45;10.38;;;;;;;6.82;86.58;99592.34;5034120;28;20095;-87
2022/01/04 07:28:13;;;;;;;13.98;10.68;;;;;;;6.82;86.29;99599.25;5052059;28;20075;-87
2022/01/04 07:30:39;;;;;;;13.55;10.75;;;;;;;6.82;86.65;99583.72;5051479;28;20017;-87
2022/01/04 07:33:04;;;;;;;15.13;11.10;;;;;;;6.82;86.37;99574.25;5051337;28;20351;-87
2022/01/04 07:35:29;;;;;;;13.73;10.98;;;;;;;6.81;86.35;99567.41;5050029;28;20028;-87
2022/01/04 07:37:54;;;;;;;13.10;10.40;;;;;;;6.81;86.45;99562.22;5050875;28;20464;-87
2022/01/04 07:40:20;;;;;;;13.57;11.13;;;;;;;6.78;86.78;99544.22;5051772;28;20040;-87
2022/01/04 07:42:46;;;;;;;16.35;12.43;;;;;;;6.79;86.58;99555.38;5050713;28;20029;-86
2022/01/04 07:45:12;;;;;;;16.48;12.07;;;;;;;6.77;86.79;99555.44;5050832;28;20041;-87
2022/01/04 07:47:37;;;;;;;16.52;12.45;;;;;;;6.79;86.55;99553.66;5050920;28;20036;-86
2022/01/04 07:50:03;;;;;;;17.55;13.13;;;;;;;6.78;86.12;99556.28;5035434;28;20115;-87
2022/01/04 07:52:29;;;;;;;17.98;13.25;;;;;;;6.78;86.30;99562.31;5050891;28;20108;-87
2022/01/04 07:54:54;;;;;;;19.15;13.45;;;;;;;6.77;86.67;99558.03;5050842;28;20025;-87
2022/01/04 07:57:19;;;;;;;20.73;14.13;;;;;;;6.78;86.69;99556.28;5050058;28;20029;-87
2022/01/04 07:59:45;;;;;;;22.17;13.73;;;;;;;6.80;86.54;99572.59;5051003;28;20076;-87
2022/01/04 08:02:10;;;;;;;19.00;13.68;;;;;;;6.81;86.66;99575.16;5050724;28;20411;-87
2022/01/04 08:04:35;;;;;;;25.55;13.85;;;;;;;6.80;86.50;99581.22;5050674;28;20032;-87
2022/01/04 08:07:00;;;;;;;22.15;13.40;;;;;;;6.82;86.43;99579.44;5050273;28;20461;-87
2022/01/04 08:09:26;;;;;;;20.40;12.98;;;;;;;6.81;86.44;99572.56;5049546;28;20040;-87
2022/01/04 08:11:51;;;;;;;18.00;12.77;;;;;;;6.84;86.40;99564.69;5050493;28;20044;-87
2022/01/04 08:14:17;;;;;;;19.70;13.00;;;;;;;6.84;86.60;99566.44;5050386;28;20033;-87
2022/01/04 08:16:42;;;;;;;17.35;12.48;;;;;;;6.83;86.48;99557.00;5049854;28;20045;-87
2022/01/04 08:19:08;;;;;;;16.58;12.63;;;;;;;6.83;86.45;99555.25;5050539;28;20032;-87
2022/01/04 08:21:33;;;;;;;19.42;13.07;;;;;;;6.82;86.59;99556.16;5049461;28;20123;-87
2022/01/04 08:23:58;;;;;;;19.60;13.02;;;;;;;6.83;86.40;99557.00;5050382;28;20029;-87
2022/01/04 08:26:24;;;;;;;18.35;12.98;;;;;;;6.82;86.58;99563.91;5050488;28;20059;-87
2022/01/04 08:28:50;;;;;;;18.27;13.52;;;;;;;6.82;86.39;99569.09;5050029;28;20094;-87
2022/01/04 08:31:15;;;;;;;19.25;13.90;;;;;;;6.84;86.61;99562.09;5050100;28;20036;-87
2022/01/04 08:33:41;;;;;;;22.05;14.25;;;;;;;6.85;86.24;99568.13;5050208;28;20028;-87
2022/01/04 08:36:08;;;;;;;23.40;14.07;;;;;;;6.84;86.83;99559.53;5050837;28;20064;-87
2022/01/04 08:38:34;;;;;;;28.02;15.57;;;;;;;6.85;86.77;99568.13;5035621;28;20467;-87
2022/01/04 08:40:59;;;;;;;22.52;14.93;;;;;;;6.86;86.84;99575.00;5033233;28;20033;-87
2022/01/04 08:43:26;;;;;;;23.08;16.10;;;;;;;6.88;86.65;99572.34;5050697;28;20115;-86
2022/01/04 08:45:52;;;;;;;23.70;15.82;;;;;;;6.87;86.57;99583.59;5049733;28;20021;-86
2022/01/04 08:48:17;;;;;;;34.20;17.13;;;;;;;6.91;86.42;99585.19;5058370;28;20468;-87
2022/01/04 08:50:44;;;;;;;25.95;15.88;;;;;;;6.91;86.37;99600.72;5061277;28;20127;-87
2022/01/04 08:53:11;;;;;;;33.33;17.42;;;;;;;6.92;86.68;99604.97;5056748;28;20059;-87
2022/01/04 08:55:37;;;;;;;30.88;17.30;;;;;;;6.92;86.62;99600.66;5049741;28;20451;-87
2022/01/04 08:58:02;;;;;;;34.65;17.30;;;;;;;6.94;86.57;99600.63;5049588;28;20037;-87
2022/01/04 09:00:27;;;;;;;25.92;16.70;;;;;;;6.94;86.52;99605.78;5047362;28;20494;-87
2022/01/04 09:02:52;;;;;;;27.27;17.30;;;;;;;6.94;86.47;99604.03;5048859;28;20031;-87
2022/01/04 09:05:18;;;;;;;24.55;17.20;;;;;;;6.95;86.24;99610.06;5046282;28;20498;-87
2022/01/04 09:07:43;;;;;;;40.33;18.15;;;;;;;6.96;86.32;99607.41;5043857;28;20056;-89
2022/01/04 09:10:09;;;;;;;24.80;16.75;;;;;;;6.95;86.44;99587.63;5041385;28;20036;-86
2022/01/04 09:15:27;;;;;;;27.15;17.65;;;;;;;7.00;86.18;99592.69;5043529;28;20037;-87
2022/01/04 09:20:35;;;;;;;32.28;17.75;;;;;;;7.03;86.04;99589.97;5041164;28;20400;-88
2022/01/04 09:23:00;;;;;;;40.25;19.00;;;;;;;7.03;85.94;99589.97;5044305;28;20495;-87
2022/01/04 09:25:25;;;;;;;33.25;17.95;;;;;;;7.05;85.89;99585.59;5041308;28;20507;-88
2022/01/04 09:27:52;;;;;;;35.90;17.35;;;;;;;7.08;85.70;99587.28;5043916;28;20130;-86
2022/01/04 09:30:18;;;;;;;27.55;17.63;;;;;;;7.06;85.89;99582.13;5027101;28;20052;-86
2022/01/04 09:32:43;;;;;;;29.05;17.20;;;;;;;7.06;85.83;99595.06;5046590;28;20087;-86
2022/01/04 09:35:11;;;;;;;34.17;17.58;;;;;;;7.09;85.84;99605.31;5045063;28;20111;-86
2022/01/04 09:37:36;;;;;;;31.20;17.67;;;;;;;7.09;85.94;99600.13;5044777;28;20052;-87
2022/01/04 09:40:03;;;;;;;25.65;17.02;;;;;;;7.10;86.00;99611.31;5046779;28;20407;-87
2022/01/04 09:42:28;;;;;;;28.70;17.70;;;;;;;7.10;86.01;99612.19;5044708;28;20090;-87
2022/01/04 09:44:54;;;;;;;27.52;17.05;;;;;;;7.11;85.76;99610.41;5046789;28;20399;-87
2022/01/04 09:47:19;;;;;;;31.30;18.33;;;;;;;7.10;85.85;99607.00;5044933;28;20053;-89
2022/01/04 09:49:44;;;;;;;32.92;18.27;;;;;;;7.12;85.61;99607.81;5045540;28;20059;-88
2022/01/04 09:52:14;;;;;;;32.13;17.85;;;;;;;7.12;86.01;99609.53;5045367;28;20067;-89
2022/01/04 09:54:40;;;;;;;32.97;20.20;;;;;;;7.12;85.74;99607.81;5045336;28;20037;-88
2022/01/04 09:57:05;;;;;;;31.92;19.38;;;;;;;7.14;85.75;99611.19;5044221;28;20376;-89
2022/01/04 09:59:30;;;;;;;35.65;20.13;;;;;;;7.16;85.83;99602.53;5044219;28;20486;-89
2022/01/04 10:02:02;;;;;;;36.47;20.88;;;;;;;7.16;85.64;99590.44;5043875;28;20106;-88
2022/01/04 10:04:27;;;;;;;34.85;20.35;;;;;;;7.18;85.51;99596.41;5043469;28;20158;-88
2022/01/04 10:07:07;;;;;;;32.15;21.40;;;;;;;7.19;85.90;99589.47;5043129;28;21385;-90
2022/01/04 10:09:45;;;;;;;37.45;21.58;;;;;;;7.18;85.48;99590.38;5042698;28;20134;-88
2022/01/04 10:12:14;;;;;;;46.22;21.98;;;;;;;7.20;85.67;99598.94;5043597;28;20036;-88
2022/01/04 10:14:43;;;;;;;44.42;21.95;;;;;;;7.20;85.65;99594.63;5038874;28;20044;-88
2022/01/04 10:17:27;;;;;;;44.55;23.30;;;;;;;7.23;85.76;99593.66;5025958;28;20476;-87
2022/01/04 10:19:55;;;;;;;35.60;21.80;;;;;;;7.24;85.35;99580.72;5028210;28;20029;-87
2022/01/04 10:22:32;;;;;;;39.13;22.50;;;;;;;7.26;85.54;99575.47;5046376;28;20035;-87
2022/01/04 10:25:00;;;;;;;40.60;23.67;;;;;;;7.30;85.60;99574.47;5043542;28;20128;-88
2022/01/04 10:27:38;;;;;;;39.17;23.48;;;;;;;7.29;85.40;99565.84;5042445;28;20051;-88
2022/01/04 10:30:25;;;;;;;35.72;22.55;;;;;;;7.33;85.52;99563.19;5044104;28;20036;-87
2022/01/04 10:32:56;;;;;;;40.80;22.83;;;;;;;7.33;84.82;99564.03;5043407;28;20070;-87
2022/01/04 10:35:36;;;;;;;43.40;23.67;;;;;;;7.33;84.90;99566.63;5045662;28;20810;-88
2022/01/04 10:38:27;;;;;;;39.53;23.17;;;;;;;7.36;85.18;99558.75;5042645;28;20028;-88
2022/01/04 10:41:01;;;;;;;40.22;24.75;;;;;;;7.38;85.19;99556.94;5032121;28;20052;-87
2022/01/04 10:43:29;;;;;;;44.28;23.83;;;;;;;7.41;84.92;99556.84;5046344;28;20029;-87
2022/01/04 10:45:56;;;;;;;36.17;23.27;;;;;;;7.42;84.33;99552.53;5027019;28;20458;-88
2022/01/04 10:48:25;;;;;;;46.80;24.20;;;;;;;7.44;84.84;99551.59;5043938;28;20028;-88
2022/01/04 10:50:53;;;;;;;45.47;25.10;;;;;;;7.46;84.81;99559.28;5043994;28;20454;-89
2022/01/04 10:53:26;;;;;;;42.47;24.88;;;;;;;7.48;84.84;99565.25;5045107;28;20122;-87
2022/01/04 10:55:57;;;;;;;45.25;24.83;;;;;;;7.51;84.58;99546.22;5058125;28;20063;-87
2022/01/04 10:58:29;;;;;;;44.50;25.25;;;;;;;7.52;84.74;99547.88;5042677;28;20032;-87
2022/01/04 11:00:59;;;;;;;46.15;25.02;;;;;;;7.52;84.71;99553.91;5042017;28;20053;-87
2022/01/04 11:03:30;;;;;;;38.35;25.02;;;;;;;7.49;84.46;99554.00;5026610;28;20040;-88
2022/01/04 11:05:59;;;;;;;41.70;26.05;;;;;;;7.49;84.72;99573.88;5043968;28;20048;-87
2022/01/04 11:08:25;;;;;;;43.25;25.77;;;;;;;7.50;84.37;99566.06;5043035;28;20379;-88
2022/01/04 11:10:53;;;;;;;38.88;24.15;;;;;;;7.50;84.34;99555.69;5044539;28;20032;-87
2022/01/04 11:13:18;;;;;;;38.65;24.58;;;;;;;7.51;84.42;99561.75;5041797;28;20025;-86
2022/01/04 11:15:43;;;;;;;46.50;24.88;;;;;;;7.52;84.39;99553.91;5044088;28;20044;-88
2022/01/04 11:18:10;;;;;;;44.05;24.98;;;;;;;7.55;84.38;99553.81;5039838;28;20131;-89
2022/01/04 11:20:39;;;;;;;44.28;23.83;;;;;;;7.56;84.41;99549.47;5043420;28;20032;-88
2022/01/04 11:23:06;;;;;;;44.00;25.00;;;;;;;7.56;84.61;99549.47;5041911;28;20051;-88
2022/01/04 11:25:31;;;;;;;38.72;24.83;;;;;;;7.57;84.11;99545.97;5044274;28;20048;-86
2022/01/04 11:28:00;;;;;;;41.58;24.27;;;;;;;7.56;84.33;99546.88;5043595;28;20184;-87
2022/01/04 11:30:35;;;;;;;42.60;24.98;;;;;;;7.56;84.54;99549.47;5042481;28;20020;-88
2022/01/04 11:33:10;;;;;;;38.85;24.60;;;;;;;7.54;84.73;99564.19;5043064;28;20090;-87
2022/01/04 11:35:35;;;;;;;40.53;25.58;;;;;;;7.50;85.14;99579.00;5041484;28;20020;-89
2022/01/04 11:38:00;;;;;;;42.78;26.77;;;;;;;7.49;86.16;99581.63;5040527;28;20036;-88